sensor_id;sensor_type;location;lat;lon;timestamp;P1;durP1;ratioP1;P2;durP2;ratioP2
12072;SDS011;6098;49.004;8.372;2023-12-20T00:05:55;6.32;;;3.41;;
12072;SDS011;6098;49.004;8.372;2023-12-20T00:20:45;8.66;;;3.71;;
12072;SDS011;6098;49.004;8.372;2023-12-20T00:35:36;6.29;;;3.63;;
12072;SDS011;6098;49.004;8.372;2023-12-20T00:50:27;7.69;;;3.81;;
12072;SDS011;6098;49.004;8.372;2023-12-20T01:05:20;6.60;;;3.70;;
12072;SDS011;6098;49.004;8.372;2023-12-20T01:20:12;6.10;;;3.28;;
12072;SDS011;6098;49.004;8.372;2023-12-20T01:35:04;5.50;;;3.57;;
12072;SDS011;6098;49.004;8.372;2023-12-20T01:49:55;5.09;;;3.22;;
12072;SDS011;6098;49.004;8.372;2023-12-20T02:04:47;5.20;;;3.54;;
12072;SDS011;6098;49.004;8.372;2023-12-20T02:19:39;5.72;;;3.36;;
12072;SDS011;6098;49.004;8.372;2023-12-20T02:34:30;5.23;;;3.21;;
12072;SDS011;6098;49.004;8.372;2023-12-20T02:49:21;5.37;;;3.29;;
12072;SDS011;6098;49.004;8.372;2023-12-20T03:04:12;5.40;;;3.52;;
12072;SDS011;6098;49.004;8.372;2023-12-20T03:19:03;5.23;;;3.27;;
12072;SDS011;6098;49.004;8.372;2023-12-20T03:33:56;5.48;;;3.31;;
12072;SDS011;6098;49.004;8.372;2023-12-20T03:48:47;4.68;;;2.98;;
12072;SDS011;6098;49.004;8.372;2023-12-20T04:03:40;4.69;;;2.87;;
12072;SDS011;6098;49.004;8.372;2023-12-20T04:18:33;3.78;;;3.02;;
12072;SDS011;6098;49.004;8.372;2023-12-20T04:33:25;3.58;;;2.92;;
12072;SDS011;6098;49.004;8.372;2023-12-20T04:48:17;5.02;;;3.29;;
12072;SDS011;6098;49.004;8.372;2023-12-20T05:03:08;4.04;;;2.60;;
12072;SDS011;6098;49.004;8.372;2023-12-20T05:18:01;5.61;;;2.76;;
12072;SDS011;6098;49.004;8.372;2023-12-20T05:32:54;5.29;;;2.99;;
12072;SDS011;6098;49.004;8.372;2023-12-20T05:47:45;5.89;;;3.12;;
12072;SDS011;6098;49.004;8.372;2023-12-20T06:02:36;3.90;;;3.32;;
12072;SDS011;6098;49.004;8.372;2023-12-20T06:17:29;4.29;;;3.04;;
12072;SDS011;6098;49.004;8.372;2023-12-20T06:32:21;4.06;;;2.93;;
12072;SDS011;6098;49.004;8.372;2023-12-20T06:47:13;4.28;;;3.22;;
12072;SDS011;6098;49.004;8.372;2023-12-20T07:02:05;4.69;;;2.99;;
12072;SDS011;6098;49.004;8.372;2023-12-20T07:16:57;4.82;;;3.28;;
12072;SDS011;6098;49.004;8.372;2023-12-20T07:31:49;6.03;;;3.02;;
12072;SDS011;6098;49.004;8.372;2023-12-20T07:46:40;5.51;;;3.37;;
12072;SDS011;6098;49.004;8.372;2023-12-20T08:01:31;5.63;;;3.26;;
12072;SDS011;6098;49.004;8.372;2023-12-20T08:16:22;4.54;;;3.03;;
12072;SDS011;6098;49.004;8.372;2023-12-20T08:31:16;5.47;;;3.13;;
12072;SDS011;6098;49.004;8.372;2023-12-20T08:46:10;5.46;;;3.00;;
12072;SDS011;6098;49.004;8.372;2023-12-20T09:01:01;5.66;;;2.82;;
12072;SDS011;6098;49.004;8.372;2023-12-20T09:15:54;5.91;;;2.94;;
12072;SDS011;6098;49.004;8.372;2023-12-20T09:30:47;4.49;;;1.87;;
12072;SDS011;6098;49.004;8.372;2023-12-20T09:45:38;5.84;;;2.37;;
12072;SDS011;6098;49.004;8.372;2023-12-20T10:00:30;3.39;;;2.02;;
12072;SDS011;6098;49.004;8.372;2023-12-20T10:15:23;2.84;;;2.00;;
12072;SDS011;6098;49.004;8.372;2023-12-20T10:30:14;3.54;;;2.03;;
12072;SDS011;6098;49.004;8.372;2023-12-20T10:45:05;6.51;;;2.34;;
12072;SDS011;6098;49.004;8.372;2023-12-20T10:59:56;3.73;;;2.07;;
12072;SDS011;6098;49.004;8.372;2023-12-20T11:14:50;4.80;;;2.24;;
12072;SDS011;6098;49.004;8.372;2023-12-20T11:29:40;7.60;;;2.00;;
12072;SDS011;6098;49.004;8.372;2023-12-20T11:44:31;4.83;;;2.19;;
12072;SDS011;6098;49.004;8.372;2023-12-20T11:59:21;5.84;;;2.41;;
12072;SDS011;6098;49.004;8.372;2023-12-20T12:14:13;5.78;;;1.88;;
12072;SDS011;6098;49.004;8.372;2023-12-20T12:29:07;3.87;;;2.02;;
12072;SDS011;6098;49.004;8.372;2023-12-20T12:43:55;5.40;;;1.70;;
12072;SDS011;6098;49.004;8.372;2023-12-20T12:58:46;1.89;;;1.56;;
12072;SDS011;6098;49.004;8.372;2023-12-20T13:13:38;3.48;;;1.98;;
12072;SDS011;6098;49.004;8.372;2023-12-20T13:28:30;5.83;;;1.92;;
12072;SDS011;6098;49.004;8.372;2023-12-20T13:43:22;4.04;;;1.73;;
12072;SDS011;6098;49.004;8.372;2023-12-20T13:58:13;5.07;;;1.82;;
12072;SDS011;6098;49.004;8.372;2023-12-20T14:13:07;4.44;;;1.76;;
12072;SDS011;6098;49.004;8.372;2023-12-20T14:27:59;4.31;;;1.98;;
12072;SDS011;6098;49.004;8.372;2023-12-20T14:42:51;5.52;;;2.32;;
12072;SDS011;6098;49.004;8.372;2023-12-20T14:57:43;4.72;;;1.82;;
12072;SDS011;6098;49.004;8.372;2023-12-20T15:12:33;4.29;;;2.76;;
12072;SDS011;6098;49.004;8.372;2023-12-20T15:27:25;4.43;;;2.37;;
12072;SDS011;6098;49.004;8.372;2023-12-20T15:42:16;5.99;;;1.89;;
12072;SDS011;6098;49.004;8.372;2023-12-20T15:57:08;2.43;;;1.67;;
12072;SDS011;6098;49.004;8.372;2023-12-20T16:11:59;7.22;;;1.73;;
12072;SDS011;6098;49.004;8.372;2023-12-20T16:26:51;6.13;;;2.18;;
12072;SDS011;6098;49.004;8.372;2023-12-20T16:41:41;4.59;;;1.80;;
12072;SDS011;6098;49.004;8.372;2023-12-20T16:56:32;2.73;;;1.33;;
12072;SDS011;6098;49.004;8.372;2023-12-20T17:11:23;5.47;;;2.50;;
12072;SDS011;6098;49.004;8.372;2023-12-20T17:26:13;2.67;;;1.43;;
12072;SDS011;6098;49.004;8.372;2023-12-20T17:41:04;3.60;;;1.62;;
12072;SDS011;6098;49.004;8.372;2023-12-20T17:55:56;3.37;;;1.56;;
12072;SDS011;6098;49.004;8.372;2023-12-20T18:10:47;2.76;;;1.71;;
12072;SDS011;6098;49.004;8.372;2023-12-20T18:25:39;4.62;;;1.62;;
12072;SDS011;6098;49.004;8.372;2023-12-20T18:40:33;3.94;;;1.67;;
12072;SDS011;6098;49.004;8.372;2023-12-20T18:55:23;1.40;;;1.24;;
12072;SDS011;6098;49.004;8.372;2023-12-20T19:10:13;5.31;;;1.78;;
12072;SDS011;6098;49.004;8.372;2023-12-20T19:25:05;3.26;;;1.61;;
12072;SDS011;6098;49.004;8.372;2023-12-20T19:39:56;4.31;;;1.70;;
12072;SDS011;6098;49.004;8.372;2023-12-20T19:54:47;2.58;;;1.13;;
12072;SDS011;6098;49.004;8.372;2023-12-20T20:09:37;1.94;;;1.24;;
12072;SDS011;6098;49.004;8.372;2023-12-20T20:24:30;3.07;;;1.49;;
12072;SDS011;6098;49.004;8.372;2023-12-20T20:39:21;4.98;;;1.67;;
12072;SDS011;6098;49.004;8.372;2023-12-20T20:54:12;3.16;;;1.14;;
12072;SDS011;6098;49.004;8.372;2023-12-20T21:09:04;5.32;;;1.32;;
12072;SDS011;6098;49.004;8.372;2023-12-20T21:23:54;3.33;;;1.41;;
12072;SDS011;6098;49.004;8.372;2023-12-20T21:38:46;1.41;;;1.13;;
12072;SDS011;6098;49.004;8.372;2023-12-20T21:53:37;2.90;;;1.38;;
12072;SDS011;6098;49.004;8.372;2023-12-20T22:08:28;2.63;;;1.07;;
12072;SDS011;6098;49.004;8.372;2023-12-20T22:23:19;2.22;;;1.27;;
12072;SDS011;6098;49.004;8.372;2023-12-20T22:38:10;1.48;;;1.26;;
12072;SDS011;6098;49.004;8.372;2023-12-20T22:53:02;1.67;;;1.06;;
12072;SDS011;6098;49.004;8.372;2023-12-20T23:07:57;2.13;;;1.00;;
12072;SDS011;6098;49.004;8.372;2023-12-20T23:22:47;1.26;;;0.80;;
12072;SDS011;6098;49.004;8.372;2023-12-20T23:37:37;3.72;;;0.88;;
12072;SDS011;6098;49.004;8.372;2023-12-20T23:52:28;1.29;;;0.96;;
